Alma, New York
Current Conditions -  °F | °C
As of 2:56 AM on Monday 24 Nov 2014 (Local Time) from KELZ Reporting Station
Light Rain Light Rain  
Wind Chill: 50°   Ceiling: 1100
Heat Index: 50°   Visibility: 10mi
Dew Point: 46°   Wind: 14mph
Humidity: 86%   Direction: 170°S
Pressure: 29.5"   Gusts: 36mph
Location:  42.01°N, 78.06°W
Report Text: KELZ 240756Z AUTO 17012G31KT 10SM -RA OVC011 10/08 A2950 RMK AO2 PK WND 14032/0711 SLP991 P0007 T01000078
Loading
Personal Weather Stations






























Interactive Weather Map New forecast layout! Learn more

10-Day Weather Forecast

Advertisements
Track Severe Weather on mobile